Accueil
METAR-TAF:

METAR-TAF

Aéroports :

Dax, France

Seyresse

latitude: 43-41N, longitude: 001-04W, altitude: 32 m

Observation

Le bulletin a été fait il y a 24 minutes, à 22:30 UTC
Vent 7 kt de ouest, variant entre ouest/sud-ouest et nord-ouest
Température 15°C
Humidité 88%
Pression 1019 hPa

METAR: LFBY 242230Z AUTO 28007KT 250V320 //// // ////// 15/13 Q1019

Heure: 00:54 (22:54 UTC)

Prévision

Le bulletin a été fait il y a 14 heures et 54 minutes, à 08:00 UTC
Prévision valable du 24 à 09 UTC au 24 à 18 UTC
Vent 5 kt de est/nord-est
Visibilité: 7000 m
Nuages épars à une hauteur de 1500 ft
Evoluant progressivement
du 24 à 10 UTC au 24 à 12 UTC
Visibilité 10 km ou plus
pas de nuages en-dessous de 1500 mètres et pas de cumulonimbus.

TAF: LFBY 240800Z 2409/2418 07005KT 7000 SCT015 BECMG 2410/2412 CAVOK

Observations et prévisions météorologiques de plus de 4000 aéroports (messages METAR et TAF).

Les stations disponibles sont représentées par des disques jaunes et rouges sur la carte.

Passer la souris dessus pour voir le nom de la station.

Cliquer dessus pour voir les observations et prévisions météorologiques.

Pour changer de carte: cliquez sur les boutons verts avec une croix noire pour zoomer, sur le bouton vert avec un tiret pour effectuer un zoom arrière, ou sur les flèches vertes pour les cartes adjacentes.


METAR-TAF: